Saturday, August 23, 2014
18:26 UTC
  |  Log In   |  Register Free
Airport Search:

Lincoln Airport
(KLNK)

FAA data valid effective July 24, 2014 until September 18, 2014 (unless otherwise noted).

 
 
 
 
 
 
 
 
 
 
 
 
 
 

Current Aviation Weather for Lincoln Airport (KLNK)

The most recent METAR observation for KLNK was updated at: 1754 UTC
METAR Summary (Translated METAR)
KLNK
281754Z 34013G18KT 10SM FEW042 26/12 A3029 RMK AO2 SLP247 T02610117 10261 20156 58002
KBIE
(33 nm SE from KLNK)
281835Z AUTO 35007G16KT 10SM SCT040 24/14 A3027 RMK AO2 T02400138
TAF Summary (Translated TAF)
KLNK
231720Z 2318/2418 16012G22KT P6SM SCT250 FM240000 16011KT P6SM SCT030 BKN150
  Airport Weather Conditions for KLNK

 Current Weather at LNK
87° F
Fair
Southeast winds at 11.5 mph
LNK NOAA Radar

Pressure: 29.85 in
Humidity: 59%
Wind: Southeast at 11.5 MPH (10 KT)
Dew Point: 71.1°F
Visibility: 10.00 mi


Airport Weather Forecast for KLNK

Translated METAR and TAF for KLNK
Translated METAR for KLNK (1819 UTC 23 August 2014)
found at http://aviationweather.gov/adds/metars/
 
METAR text: KLNK 231754Z 12010KT 10SM CLR 31/22 A2985 RMK AO2 SLP094 T03060217 10311 20211 58012
Conditions at: KLNK (LINCOLN , NE, US) observed 1754 UTC 23 August 2014
Temperature: 30.6°C (87°F)
Dewpoint: 21.7°C (71°F) [RH = 59%]
Pressure (altimeter): 29.85 inches Hg (1010.9 mb)
[Sea-level pressure: 1009.4 mb]
Winds: from the ESE (120 degrees) at 12 MPH (10 knots; 5.2 m/s)
Visibility: 10 or more miles (16+ km)
Ceiling: at least 12,000 feet AGL
Clouds: sky clear below 12,000 feet AGL
Weather: no significant weather observed at this time
Translated TAF for KLNK
Forecast for: KLNK (LINCOLN , NE, US)
TAF Text: KLNK 231720Z 2318/2418 16012G22KT P6SM SCT250
Forecast period: 1800 UTC 23 August 2014 to 0000 UTC 24 August 2014
Forecast type: FROM: standard forecast or significant change
Winds: from the SSE (160 degrees) at 14 MPH (12 knots; 6.2 m/s)
gusting to 25 MPH (22 knots; 11.4 m/s)
Visibility: 6 or more miles (10+ km)
Clouds: scattered clouds at 25000 feet AGL
Weather: no significant weather forecast for this period
TAF Text: FM240000 16011KT P6SM SCT030 BKN150
Forecast period: 0000 to 1800 UTC 24 August 2014
Forecast type: FROM: standard forecast or significant change
Winds: from the SSE (160 degrees) at 13 MPH (11 knots; 5.7 m/s)
Visibility: 6 or more miles (10+ km)
Ceiling: 15000 feet AGL
Clouds: scattered clouds at 3000 feet AGL
broken clouds at 15000 feet AGL
Weather: no significant weather forecast for this period

Find All Airport Services Find A Hotel Find A Rental Car Find A Golf Course Find A Restaurant $100 Hamburger



FBO's on the Field
FBO Company Facility Photos Services Transportation Aviation Fuel Prices: Prices include tax
Catering Weather Repair Courtesy Rental Type 100LL JetA JetA+ MOGAS 8087
 
Duncan Aviation

This FBO has not yet been rated
FS:Avfuel
Last Updated: Aug-20
Login to update fuel prices
SS:
Contact Duncan AviationMore FBO Information
 
Silverhawk Aviation

This FBO has not yet been rated
FS:Phillips66
Last Updated: Aug-19
Login to update fuel prices
SS:
Contact Silverhawk AviationMore FBO Information
 
Add another FBO Facility Photos Catering Weather Repair Courtesy Rental Type 100LL JetA JetA+ MOGAS 8087
Services Transportation Aviation Fuel Prices: Prices include tax


GlobalAir.com Airport Resource Center model-print
model-print
model-print
model-print